Latest Coastal Weather Observations for Low Isles

IDQ60701

Issued at 10:21 am EST Thursday 23 February 2017 (issued every 10 minutes, with the page automatically refreshed every 10 minutes)

About coastal observations | Map of coastal stations | Coastal observations for QLD | Marine services | Other Formats
Station Details ID: 031037 Name: LOW ISLES LIGHTHOUSE Lat: -16.38 Lon: 145.56 Height: 2.9 m
Data from the previous 72 hours. | See also: Recent months at Low Isles
Date/Time
EST
Temp
°C
Wind Pressure Rain since
9am
mm
Weather Cloud Vis
km
Sea
Height
m
Swell
Dir  Spd
kts
Gust
kts
hPa Trend Height
m
Period
s
Dir
23/10:00am 29.3 SSE 12 14 1013.4 - 0.0 - - - - - - -
23/09:30am 29.0 SSE 13 15 1013.5 - 0.0 - - - - - - -
23/09:00am 28.3 S 11 13 1013.4 - 5.8 - - - - - - -
23/08:30am 27.9 S 12 14 1013.3 - 5.8 - - - - - - -
23/08:00am 27.7 S 12 14 1012.8 - 5.8 - - - - - - -
23/07:30am 27.1 S 11 13 1012.4 - 5.8 - - - - - - -
23/07:00am 26.7 S 10 12 1012.6 - 5.8 - - - - - - -
23/06:30am 26.5 SSW 10 11 1012.2 - 5.8 - - - - - - -
23/06:00am 26.4 WSW 13 15 1011.9 - 5.8 - - - - - - -
23/05:30am 26.1 SSW 14 16 1011.9 - 5.8 - - - - - - -
23/05:00am 26.0 S 8 11 1011.8 - 5.4 - - - - - - -
23/04:30am 25.4 SSE 8 10 1011.9 - 5.2 - - - - - - -
23/04:00am 25.6 SSE 7 9 1011.7 - 3.6 - - - - - - -
23/03:30am 25.6 S 9 11 1011.5 - 3.6 - - - - - - -
23/03:00am 26.5 ENE 14 18 1011.6 - 3.6 - - - - - - -
23/02:50am 26.8 E 16 18 1011.8 - 3.6 - - - - - - -
23/02:30am 27.3 S 5 6 1011.8 - 3.6 - - - - - - -
23/02:00am 27.3 SW 11 12 1011.8 - 3.6 - - - - - - -
23/01:30am 27.4 WSW 10 12 1012.3 - 3.6 - - - - - - -
23/01:00am 27.4 WSW 10 11 1012.7 - 3.6 - - - - - - -
23/12:30am 27.6 SSW 8 9 1013.0 - 3.6 - - - - - - -
23/12:00am 27.8 S 11 12 1013.1 - 3.6 - - - - - - -
 
Date/Time
EST
Temp
°C
Wind Pressure Rain since
9am
mm
Weather Cloud Vis
km
Sea
Height
m
Swell
Dir  Spd
kts
Gust
kts
hPa Trend Height
m
Period
s
Dir
22/11:30pm 28.1 SSE 12 14 1013.4 - 3.6 - - - - - - -
22/11:00pm 27.9 SE 16 17 1013.5 - 3.6 - - - - - - -
22/10:30pm 27.5 SE 21 23 1013.5 - 3.6 - - - - - - -
22/10:00pm 28.1 SE 20 26 1013.4 - 3.6 - - - - - - -
22/09:52pm 28.6 SE 15 21 1013.2 - 3.6 - - - - - - -
22/09:30pm 27.4 ESE 7 11 1012.9 - 3.6 - - - - - - -
22/09:00pm 27.4 E 8 10 1012.4 - 3.6 - - - - - - -
22/08:30pm 27.1 E 5 6 1011.9 - 3.6 - - - - - - -
22/08:00pm 26.9 NE 6 7 1011.8 - 3.6 - - - - - - -
22/07:30pm 27.4 ENE 12 15 1012.0 - 3.6 - - - - - - -
22/07:00pm 27.6 ESE 9 11 1011.4 - 3.6 - - - - - - -
22/06:30pm 27.8 ESE 8 10 1010.9 - 3.6 - - - - - - -
22/06:00pm 28.1 ESE 8 9 1010.4 - 3.6 - - - - - - -
22/05:30pm 28.8 ESE 7 9 1010.1 - 3.6 - - - - - - -
22/05:00pm 29.3 ESE 9 12 1010.1 - 3.6 - - - - - - -
22/04:30pm 28.8 SE 9 11 1009.8 - 3.6 - - - - - - -
22/04:00pm 29.0 NNE 1 3 1009.9 - 3.6 - - - - - - -
22/03:30pm 28.5 NE 5 7 1010.1 - 3.6 - - - - - - -
22/03:00pm 28.3 CALM 0 3 1010.3 - 3.6 - - - - - - -
22/02:30pm 28.0 N 6 10 1010.7 - 3.6 - - - - - - -
22/02:00pm 27.5 N 8 11 1011.2 - 3.6 - - - - - - -
22/01:30pm 28.0 S 9 11 1011.4 - 3.6 - - - - - - -
22/01:00pm 27.8 WSW 6 7 1011.8 - 3.6 - - - - - - -
22/12:30pm 26.7 NNW 7 8 1012.2 - 3.6 - - - - - - -
22/12:00pm 26.0 NNE 15 18 1012.4 - 2.8 - - - - - - -
22/11:39am 27.9 NE 15 18 1012.6 - 0.0 - - - - - - -
22/11:30am 28.6 WSW 5 8 1012.6 - 0.0 - - - - - - -
22/11:00am 28.8 WSW 6 8 1012.7 - 0.0 - - - - - - -
22/10:30am 28.9 W 5 6 1013.0 - 0.0 - - - - - - -
22/10:00am 28.5 WSW 4 5 1013.0 - 0.0 - - - - - - -
22/09:30am 27.7 WSW 5 7 1013.0 - 0.0 - - - - - - -
22/09:00am 27.1 W 7 9 1012.8 - 17.6 Haze Mostly cloudy 25 - - - -
22/08:30am 27.1 W 7 9 1012.8 - 17.6 - - - - - - -
22/08:00am 26.4 WSW 5 7 1012.5 - 17.6 - - - - - - -
22/07:30am 26.6 W 8 9 1012.3 - 17.6 - - - - - - -
22/07:00am 26.2 WSW 8 10 1012.3 - 17.6 - - - - - - -
22/06:30am 26.2 WSW 9 10 1012.1 - 17.6 - - - - - - -
22/06:00am 24.8 SSW 5 6 1011.7 - 17.6 - - - - - - -
22/05:30am 25.0 SW 8 10 1011.6 - 17.6 - - - - - - -
22/05:00am 25.1 S 8 9 1011.5 - 17.6 - - - - - - -
22/04:30am 23.7 N 3 4 1011.4 - 16.8 - - - - - - -
22/04:00am 24.7 NE 13 17 1011.2 - 7.6 - - - - - - -
22/03:30am 25.9 ENE 18 22 1011.2 - 5.2 - - - - - - -
22/03:00am 27.1 SSE 11 13 1011.1 - 5.2 - - - - - - -
22/02:30am 26.9 SSE 12 13 1011.5 - 5.2 - - - - - - -
22/02:00am 26.6 SW 5 6 1011.9 - 5.2 - - - - - - -
22/01:30am 26.5 WSW 6 8 1012.2 - 5.2 - - - - - - -
22/01:00am 25.7 SSE 7 7 1012.1 - 5.2 - - - - - - -
22/12:30am 25.9 SSW 4 5 1012.8 - 5.2 - - - - - - -
22/12:00am 26.5 WSW 8 9 1013.3 - 5.2 - - - - - - -
 
Date/Time
EST
Temp
°C
Wind Pressure Rain since
9am
mm
Weather Cloud Vis
km
Sea
Height
m
Swell
Dir  Spd
kts
Gust
kts
hPa Trend Height
m
Period
s
Dir
21/11:30pm 26.7 W 8 10 1013.8 - 5.2 - - - - - - -
21/11:00pm 26.5 WSW 10 12 1013.6 - 5.2 - - - - - - -
21/10:30pm 26.1 SW 10 11 1013.6 - 5.2 - - - - - - -
21/10:00pm 25.7 SSW 8 10 1013.7 - 5.0 - - - - - - -
21/09:30pm 25.5 SSW 6 7 1013.5 - 4.4 - - - - - - -
21/09:00pm 25.6 S 6 8 1013.0 - 4.2 - - - - - - -
21/08:30pm 25.5 S 6 7 1012.9 - 3.8 - - - - - - -
21/08:00pm 25.6 SSW 5 8 1013.0 - 2.8 - - - - - - -
21/07:30pm 26.3 NW 11 14 1012.9 - 0.8 - - - - - - -
21/07:00pm 27.7 NW 17 21 1011.9 - 0.0 - - - - - - -
21/06:48pm 27.7 NW 20 25 1011.6 - 0.0 - - - - - - -
21/06:30pm 29.2 N 13 16 1011.3 - 0.0 - - - - - - -
21/06:00pm 29.2 NNE 11 14 1010.9 - 0.0 - - - - - - -
21/05:30pm 29.4 NE 12 14 1010.5 - 0.0 - - - - - - -
21/05:00pm 29.3 NE 11 14 1010.2 - 0.0 - - - - - - -
21/04:30pm 29.5 ENE 9 10 1009.8 - 0.0 - - - - - - -
21/04:00pm 29.8 NE 19 23 1009.6 - 0.0 - - - - - - -
21/03:51pm 30.4 NE 20 23 1009.7 - 0.0 - - - - - - -
21/03:30pm 31.8 ENE 9 12 1009.8 - 0.0 - - - - - - -
21/03:00pm 31.8 ENE 8 10 1010.0 - 0.0 - - - - - - -
21/02:30pm 32.1 E 9 11 1010.2 - 0.0 - - - - - - -
21/02:00pm 32.1 E 7 11 1010.4 - 0.0 - - - - - - -
21/01:30pm 31.5 ENE 6 7 1011.1 - 0.0 - - - - - - -
21/01:00pm 32.0 NE 7 9 1011.4 - 0.0 - - - - - - -
21/12:30pm 31.7 NE 7 9 1011.6 - 0.0 - - - - - - -
21/12:00pm 31.8 ENE 5 7 1012.1 - 0.0 - - - - - - -
21/11:30am 31.2 ENE 5 7 1012.4 - 0.0 - - - - - - -
21/11:00am 31.1 N 1 3 1012.8 - 0.0 - - - - - - -
21/10:30am 29.8 S 3 4 1012.7 - 0.0 - - - - - - -
21/10:00am 28.7 SSW 4 5 1012.8 - 0.0 - - - - - - -
21/09:30am 27.8 SW 4 5 1012.6 - 0.0 - - - - - - -
21/09:00am 27.2 WSW 5 7 1012.4 - 3.4 Haze Cloudy 20 - - - -
21/08:30am 27.1 WSW 7 8 1012.5 - 3.4 - - - - - - -
21/08:00am 27.0 W 8 9 1012.1 - 3.4 - - - - - - -
21/07:30am 27.0 W 8 9 1011.5 - 3.4 - - - - - - -
21/07:00am 26.2 W 4 5 1011.1 - 3.4 - - - - - - -
21/06:30am 26.6 W 6 7 1010.6 - 3.4 - - - - - - -
21/06:00am 26.2 WNW 6 7 1010.2 - 3.4 - - - - - - -
21/05:30am 25.7 NW 5 7 1010.1 - 3.4 - - - - - - -
21/05:00am 25.8 W 3 5 1009.8 - 3.4 - - - - - - -
21/04:30am 26.2 W 3 5 1009.4 - 3.4 - - - - - - -
21/04:00am 26.8 W 7 9 1009.2 - 3.4 - - - - - - -
21/03:30am 26.8 W 11 13 1009.2 - 3.4 - - - - - - -
21/03:00am 26.7 WNW 11 12 1009.1 - 3.4 - - - - - - -
21/02:30am 26.6 WNW 11 13 1009.4 - 3.4 - - - - - - -
21/02:00am 26.6 WNW 11 13 1009.8 - 3.4 - - - - - - -
21/01:30am 26.8 W 8 11 1009.9 - 3.4 - - - - - - -
21/01:00am 26.4 W 6 6 1010.4 - 3.4 - - - - - - -
21/12:30am 26.4 WNW 10 13 1010.9 - 3.4 - - - - - - -
21/12:00am 26.6 W 8 10 1011.1 - 3.2 - - - - - - -
 
Date/Time
EST
Temp
°C
Wind Pressure Rain since
9am
mm
Weather Cloud Vis
km
Sea
Height
m
Swell
Dir  Spd
kts
Gust
kts
hPa Trend Height
m
Period
s
Dir
20/11:30pm 26.3 W 8 10 1011.6 - 3.2 - - - - - - -
20/11:00pm 25.9 NW 11 13 1012.0 - 3.2 - - - - - - -
20/10:30pm 26.3 NW 13 16 1011.8 - 2.4 - - - - - - -
20/10:00pm 26.7 NW 12 14 1012.1 - 1.0 - - - - - - -
20/09:30pm 27.3 W 11 13 1011.9 - 0.6 - - - - - - -
20/09:00pm 27.0 W 11 13 1011.7 - 0.6 - - - - - - -
20/08:30pm 26.6 NW 8 9 1011.4 - 0.4 - - - - - - -
20/08:00pm 26.8 NW 13 15 1010.8 - 0.0 - - - - - - -
20/07:30pm 27.3 W 11 13 1010.2 - 0.0 - - - - - - -
20/07:00pm 28.2 W 5 6 1009.4 - 0.0 - - - - - - -
20/06:30pm 28.7 WSW 9 11 1009.1 - 0.0 - - - - - - -
20/06:00pm 29.0 WNW 11 13 1008.8 - 0.0 - - - - - - -
20/05:30pm 29.4 NE 6 9 1008.5 - 0.0 - - - - - - -
20/05:00pm 30.1 E 6 8 1008.0 - 0.0 - - - - - - -
20/04:30pm 30.4 ENE 7 8 1007.9 - 0.0 - - - - - - -
20/04:00pm 31.7 ENE 6 8 1008.0 - 0.0 - - - - - - -
20/03:30pm 31.3 ENE 7 9 1008.0 - 0.0 - - - - - - -
20/03:00pm 31.6 ENE 9 11 1007.8 - 0.0 - - - - - - -
20/02:30pm 33.2 E 9 11 1008.2 - 0.0 - - - - - - -
20/02:00pm 33.7 E 8 11 1008.2 - 0.0 - - - - - - -
20/01:30pm 33.8 E 9 10 1008.5 - 0.0 - - - - - - -
20/01:00pm 33.3 E 8 11 1008.9 - 0.0 - - - - - - -
20/12:30pm 32.7 ESE 8 11 1009.2 - 0.0 - - - - - - -
20/12:00pm 32.2 SE 8 11 1009.4 - 0.0 - - - - - - -
20/11:30am 31.3 SSE 8 9 1009.9 - 0.0 - - - - - - -
20/11:00am 31.4 SSE 7 9 1010.1 - 0.0 - - - - - - -
20/10:30am 30.0 S 5 6 1010.2 - 0.0 - - - - - - -

Other Formats:

Comma delimited format used in spreadsheet applications
http://www.bom.gov.au/fwo/IDQ60701/IDQ60701.94285.axf

JavaScript Object Notation format (JSON) in row-major order
http://www.bom.gov.au/fwo/IDQ60701/IDQ60701.94285.json